Time;durP1;ratioP1;P1;durP2;ratioP2;P2;SDS_P1;SDS_P2;PMS_P1;PMS_P2;Temp;Humidity;BMP_temperature;BMP_pressure;BME280_temperature;BME280_humidity;BME280_pressure;Samples;Min_cycle;Max_cycle;Signal;HPM_P1;HPM_P2
2021/12/31 03:46:45;;;;;;;4.85;0.85;;;14.10;99.90;;;;;;5140976;24;20055;-81
2021/12/31 03:49:11;;;;;;;1.10;0.70;;;14.10;99.90;;;;;;4804138;29;20105;-80
2021/12/31 03:51:37;;;;;;;4.43;1.00;;;14.10;99.90;;;;;;4806015;29;20064;-81
2021/12/31 03:54:02;;;;;;;3.42;0.95;;;14.10;99.90;;;;;;4814219;29;20039;-82
2021/12/31 03:56:31;;;;;;;0.63;0.60;;;14.10;99.90;;;;;;4799649;29;20034;-81
2021/12/31 03:58:59;;;;;;;1.38;1.00;;;14.10;99.90;;;;;;4802230;29;20150;-82
2021/12/31 04:01:25;;;;;;;;;;;14.10;99.90;;;;;;4791580;29;20047;-81
2021/12/31 04:03:51;;;;;;;;;;;14.20;99.90;;;;;;4814896;29;19919;-81
2021/12/31 04:06:17;;;;;;;1.23;0.80;;;14.20;99.90;;;;;;4807872;29;19988;-81
2021/12/31 04:08:43;;;;;;;1.38;0.90;;;14.20;99.90;;;;;;4815266;29;20034;-81
2021/12/31 04:11:13;;;;;;;2.33;1.33;;;14.10;99.90;;;;;;4813864;29;20035;-81
2021/12/31 04:13:39;;;;;;;1.95;0.80;;;14.20;99.90;;;;;;4799850;29;20088;-82
2021/12/31 04:16:05;;;;;;;0.93;0.60;;;14.20;99.90;;;;;;4799572;29;20113;-82
2021/12/31 04:18:31;;;;;;;2.45;0.90;;;14.20;99.90;;;;;;4799543;29;20271;-82
2021/12/31 04:20:57;;;;;;;1.20;0.80;;;14.20;99.90;;;;;;4814625;29;20345;-81
2021/12/31 04:23:29;;;;;;;3.38;0.90;;;14.20;99.90;;;;;;4799354;29;20079;-83
2021/12/31 04:25:57;;;;;;;1.55;0.90;;;14.20;99.90;;;;;;4800860;29;20043;-81
2021/12/31 04:28:25;;;;;;;2.72;1.40;;;14.20;99.90;;;;;;4811456;29;20039;-82
2021/12/31 04:30:51;;;;;;;1.88;0.85;;;14.20;99.90;;;;;;4806910;29;20227;-82
2021/12/31 04:33:17;;;;;;;1.58;0.90;;;14.20;99.90;;;;;;4799387;29;20030;-82
2021/12/31 04:35:43;;;;;;;2.72;0.82;;;14.20;99.90;;;;;;4799223;29;20103;-82
2021/12/31 04:38:09;;;;;;;2.72;0.73;;;14.20;99.90;;;;;;4799267;29;20263;-81
2021/12/31 04:40:35;;;;;;;1.25;0.90;;;14.20;99.90;;;;;;4806451;29;20038;-82
2021/12/31 04:43:00;;;;;;;2.47;0.65;;;14.20;99.90;;;;;;4801966;29;20391;-82
2021/12/31 04:45:26;;;;;;;1.17;0.63;;;14.30;99.90;;;;;;4812330;29;20046;-82
2021/12/31 04:47:52;;;;;;;0.70;0.70;;;14.30;99.90;;;;;;4783392;29;20076;-81
2021/12/31 04:50:18;;;;;;;2.70;0.82;;;14.30;99.90;;;;;;4798330;29;20031;-81
2021/12/31 04:52:44;;;;;;;5.68;1.25;;;14.30;99.90;;;;;;4795364;29;20035;-83
2021/12/31 04:55:11;;;;;;;0.65;0.65;;;14.30;99.90;;;;;;4809465;29;20023;-82
2021/12/31 04:57:38;;;;;;;2.15;1.08;;;14.30;99.90;;;;;;4819071;29;20026;-83
2021/12/31 05:00:06;;;;;;;1.52;1.00;;;14.20;99.90;;;;;;4824387;29;20038;-83
2021/12/31 05:02:32;;;;;;;1.88;0.85;;;14.20;99.90;;;;;;4796736;29;20035;-81
2021/12/31 05:04:58;;;;;;;2.00;0.90;;;14.30;99.90;;;;;;4815968;29;20106;-81
2021/12/31 05:07:23;;;;;;;1.23;0.60;;;14.20;99.90;;;;;;4801146;29;20046;-81
2021/12/31 05:09:49;;;;;;;2.67;1.02;;;14.20;99.90;;;;;;4786711;29;20330;-82
2021/12/31 05:12:21;;;;;;;2.72;0.93;;;14.20;99.90;;;;;;4786392;29;20043;-82
2021/12/31 05:14:47;;;;;;;1.83;0.90;;;14.20;99.90;;;;;;4801877;29;20114;-81
2021/12/31 05:17:13;;;;;;;3.53;0.90;;;14.20;99.90;;;;;;4786390;29;20039;-82
2021/12/31 05:19:43;;;;;;;1.23;1.00;;;14.20;99.90;;;;;;4786526;29;20484;-82
2021/12/31 05:22:10;;;;;;;1.30;0.77;;;14.20;99.90;;;;;;4812412;29;20062;-82
2021/12/31 05:24:36;;;;;;;3.92;0.90;;;14.30;99.90;;;;;;4771753;29;20038;-82
2021/12/31 05:27:02;;;;;;;1.05;0.70;;;14.30;99.90;;;;;;4808702;29;20038;-81
2021/12/31 05:29:28;;;;;;;2.92;1.10;;;14.30;99.90;;;;;;4792788;29;20035;-82
2021/12/31 05:31:54;;;;;;;5.35;1.00;;;14.30;99.90;;;;;;4784368;29;20032;-82
2021/12/31 05:34:19;;;;;;;1.10;1.00;;;14.30;99.90;;;;;;4783012;29;20335;-82
2021/12/31 05:36:45;;;;;;;2.70;0.90;;;14.30;99.90;;;;;;4801076;29;20038;-82
2021/12/31 05:39:13;;;;;;;2.25;1.80;;;14.30;99.90;;;;;;4813027;29;20039;-82
2021/12/31 05:41:39;;;;;;;;;;;14.40;99.90;;;;;;4798099;29;20038;-82
2021/12/31 05:44:06;;;;;;;;;;;14.40;99.90;;;;;;4813029;29;19917;-83
2021/12/31 05:46:32;;;;;;;1.60;1.13;;;14.40;99.90;;;;;;4773264;29;1180305;-82
2021/12/31 05:48:58;;;;;;;2.38;1.33;;;14.40;99.90;;;;;;4807700;29;20035;-82
2021/12/31 05:51:26;;;;;;;4.07;1.50;;;14.40;99.90;;;;;;4787455;29;20106;-82
2021/12/31 05:53:52;;;;;;;4.90;1.50;;;14.40;99.90;;;;;;4803040;29;20274;-83
2021/12/31 05:56:18;;;;;;;1.40;1.20;;;14.40;99.90;;;;;;4805112;29;20047;-82
2021/12/31 05:58:44;;;;;;;1.90;1.38;;;14.40;99.90;;;;;;4798724;29;20173;-82
2021/12/31 06:01:10;;;;;;;4.50;1.30;;;14.40;99.90;;;;;;4786991;29;20050;-83
2021/12/31 06:03:35;;;;;;;1.77;1.17;;;14.50;99.90;;;;;;4816837;29;20042;-83
2021/12/31 06:06:01;;;;;;;1.65;1.20;;;14.60;99.90;;;;;;4791102;29;20087;-83
2021/12/31 06:08:27;;;;;;;1.50;1.30;;;14.60;99.60;;;;;;4808218;29;20138;-83
2021/12/31 06:10:53;;;;;;;2.63;1.70;;;14.60;99.50;;;;;;4787156;29;20038;-83
2021/12/31 06:13:19;;;;;;;1.73;1.60;;;14.60;99.60;;;;;;4788447;29;20339;-82
2021/12/31 06:15:47;;;;;;;2.38;1.52;;;14.70;99.70;;;;;;4786946;29;20035;-81
2021/12/31 06:18:13;;;;;;;2.40;1.58;;;14.70;99.50;;;;;;4802205;29;20038;-82
2021/12/31 06:20:41;;;;;;;1.85;1.50;;;14.70;99.70;;;;;;4820246;29;20034;-81
2021/12/31 06:23:07;;;;;;;1.83;1.60;;;14.60;99.30;;;;;;4829577;29;20086;-83
2021/12/31 06:25:33;;;;;;;2.70;1.50;;;14.70;99.40;;;;;;4813130;29;20039;-82
2021/12/31 06:28:01;;;;;;;3.60;1.73;;;14.70;99.20;;;;;;4814025;29;20065;-81
2021/12/31 06:30:27;;;;;;;;;;;14.60;99.30;;;;;;4797412;29;20046;-82
2021/12/31 06:32:53;;;;;;;2.30;1.92;;;14.60;99.30;;;;;;4839210;29;19913;-80
2021/12/31 06:35:19;;;;;;;1.90;1.52;;;14.60;99.40;;;;;;4824906;29;20053;-81
2021/12/31 06:37:47;;;;;;;3.80;2.00;;;14.60;99.50;;;;;;4798222;29;20035;-81
2021/12/31 06:40:14;;;;;;;2.97;2.10;;;14.60;99.70;;;;;;4790369;29;20333;-82
2021/12/31 06:42:40;;;;;;;2.70;2.30;;;14.60;99.80;;;;;;4813613;29;20268;-82
2021/12/31 06:45:07;;;;;;;2.83;1.95;;;14.60;99.90;;;;;;4807668;29;20088;-81
2021/12/31 06:47:33;;;;;;;2.63;2.13;;;14.60;99.90;;;;;;4819620;29;20043;-82
2021/12/31 06:49:59;;;;;;;2.93;1.67;;;14.60;99.90;;;;;;4803056;29;20095;-83
2021/12/31 06:52:25;;;;;;;3.03;2.25;;;14.60;99.90;;;;;;4800418;29;20110;-83
2021/12/31 06:54:51;;;;;;;3.03;1.63;;;14.60;99.90;;;;;;4819156;29;20035;-82
2021/12/31 06:57:17;;;;;;;2.58;2.08;;;14.60;99.90;;;;;;4788534;29;20042;-83
2021/12/31 06:59:42;;;;;;;3.45;2.00;;;14.60;99.90;;;;;;4814394;29;20042;-83
2021/12/31 07:02:08;;;;;;;2.67;1.83;;;14.60;99.70;;;;;;4807560;29;20061;-83
2021/12/31 07:04:34;;;;;;;2.28;1.70;;;14.60;99.70;;;;;;4817333;29;20319;-81
2021/12/31 07:07:01;;;;;;;1.48;1.35;;;14.60;99.70;;;;;;4811547;29;20037;-84
2021/12/31 07:09:27;;;;;;;5.85;1.77;;;14.70;99.70;;;;;;4782214;29;20178;-83
2021/12/31 07:11:53;;;;;;;1.90;1.20;;;14.70;99.50;;;;;;4820291;29;20031;-83
2021/12/31 07:14:18;;;;;;;2.05;1.70;;;14.70;99.10;;;;;;4803243;29;20039;-83
2021/12/31 07:16:44;;;;;;;2.08;1.27;;;14.80;99.00;;;;;;4780082;29;20218;-83
2021/12/31 07:19:10;;;;;;;1.60;1.30;;;14.80;98.80;;;;;;4773660;29;20031;-83
2021/12/31 07:21:36;;;;;;;2.30;1.33;;;14.80;98.20;;;;;;4772414;29;20323;-83
2021/12/31 07:24:02;;;;;;;2.40;2.05;;;14.90;98.20;;;;;;4804026;29;20066;-82
2021/12/31 07:26:28;;;;;;;1.63;1.33;;;14.90;98.40;;;;;;4803170;29;20140;-82
2021/12/31 07:28:53;;;;;;;7.18;1.20;;;14.90;97.90;;;;;;4799705;29;20277;-82
2021/12/31 07:31:19;;;;;;;2.30;1.52;;;15.00;97.80;;;;;;4790284;29;20026;-82
2021/12/31 07:33:45;;;;;;;2.20;1.38;;;15.00;97.70;;;;;;4806696;29;20110;-82
2021/12/31 07:36:11;;;;;;;2.90;1.40;;;15.10;97.60;;;;;;4797878;29;20039;-82
2021/12/31 07:38:40;;;;;;;1.77;1.48;;;15.10;97.40;;;;;;4819968;29;20042;-82
2021/12/31 07:41:06;;;;;;;1.83;1.40;;;15.10;97.10;;;;;;4804264;29;20047;-82
2021/12/31 07:43:32;;;;;;;1.97;1.47;;;15.10;97.40;;;;;;4806672;29;20117;-82
2021/12/31 07:45:59;;;;;;;4.03;1.42;;;15.20;97.20;;;;;;4801993;29;20038;-82
2021/12/31 07:48:25;;;;;;;4.07;1.50;;;15.20;97.00;;;;;;4800877;29;20038;-83
2021/12/31 07:50:55;;;;;;;4.03;1.58;;;15.20;97.00;;;;;;4813177;29;20084;-82
2021/12/31 07:53:21;;;;;;;6.15;1.70;;;15.30;97.00;;;;;;4812909;29;20083;-83
2021/12/31 07:55:47;;;;;;;3.28;1.23;;;15.30;96.90;;;;;;4782999;29;20080;-82
2021/12/31 07:58:12;;;;;;;5.47;2.03;;;15.30;97.40;;;;;;4805807;29;20071;-82
2021/12/31 08:00:38;;;;;;;4.68;1.50;;;15.30;97.00;;;;;;4796940;29;20274;-82
2021/12/31 08:03:04;;;;;;;4.25;2.33;;;15.30;96.90;;;;;;4806583;29;20034;-83
2021/12/31 08:05:31;;;;;;;2.78;1.58;;;15.40;97.10;;;;;;4799570;29;20103;-80
2021/12/31 08:07:59;;;;;;;2.05;1.60;;;15.40;96.90;;;;;;4795490;29;20038;-83
2021/12/31 08:10:25;;;;;;;3.47;1.70;;;15.50;96.80;;;;;;4784589;29;20219;-83
2021/12/31 08:12:51;;;;;;;2.13;1.55;;;15.50;96.60;;;;;;4802790;29;20026;-83
2021/12/31 08:15:16;;;;;;;2.80;1.52;;;15.60;96.40;;;;;;4812538;29;20335;-82
2021/12/31 08:17:42;;;;;;;2.15;1.38;;;15.70;96.30;;;;;;4786151;29;20034;-82
2021/12/31 08:20:09;;;;;;;1.65;1.23;;;15.80;96.00;;;;;;4799335;29;20097;-82
2021/12/31 08:22:34;;;;;;;2.17;1.50;;;15.90;95.90;;;;;;4818078;29;20030;-82
2021/12/31 08:25:00;;;;;;;2.80;1.70;;;16.10;95.60;;;;;;4811084;29;20542;-83
2021/12/31 08:27:26;;;;;;;2.08;1.40;;;16.10;95.00;;;;;;4784218;29;20081;-83
2021/12/31 08:29:52;;;;;;;5.53;1.40;;;16.20;95.10;;;;;;4786368;29;20034;-83
2021/12/31 08:32:17;;;;;;;2.05;1.30;;;16.30;94.40;;;;;;4795179;29;20043;-81
2021/12/31 08:34:43;;;;;;;3.40;1.30;;;16.40;93.90;;;;;;4798756;29;20035;-83
2021/12/31 08:37:09;;;;;;;3.67;1.40;;;16.50;93.30;;;;;;4802510;29;20117;-82
2021/12/31 08:39:35;;;;;;;2.25;0.95;;;16.60;93.10;;;;;;4801051;29;20208;-83
2021/12/31 08:42:02;;;;;;;3.28;1.33;;;16.60;92.30;;;;;;4819373;29;20061;-82
2021/12/31 08:44:28;;;;;;;1.10;1.00;;;16.70;91.80;;;;;;4808034;29;20034;-82
2021/12/31 08:46:54;;;;;;;2.47;1.30;;;16.70;91.70;;;;;;4818733;29;20066;-83
2021/12/31 08:49:20;;;;;;;1.23;1.00;;;16.80;91.50;;;;;;4786722;29;20039;-82
2021/12/31 08:51:49;;;;;;;1.42;1.10;;;16.90;91.10;;;;;;4800073;29;20063;-82
2021/12/31 08:54:15;;;;;;;0.90;0.70;;;17.00;91.00;;;;;;4802151;29;20039;-82
2021/12/31 08:56:43;;;;;;;1.85;1.00;;;17.00;90.10;;;;;;4813881;29;20046;-83
2021/12/31 08:59:09;;;;;;;1.40;0.95;;;17.10;89.90;;;;;;4805554;29;20571;-83
2021/12/31 09:01:36;;;;;;;2.60;1.20;;;17.20;89.30;;;;;;4785259;29;20434;-83
2021/12/31 09:04:03;;;;;;;1.50;1.00;;;17.20;89.70;;;;;;4797284;29;20043;-83
2021/12/31 09:06:29;;;;;;;;;;;17.30;89.50;;;;;;4817301;29;20038;-83
2021/12/31 09:08:55;;;;;;;1.77;1.00;;;17.20;87.20;;;;;;4799555;29;20251;-82
2021/12/31 09:11:21;;;;;;;1.00;0.82;;;17.20;88.20;;;;;;4818255;29;20030;-83
2021/12/31 09:13:47;;;;;;;1.17;1.00;;;17.10;88.50;;;;;;4799788;29;20049;-83
2021/12/31 09:16:14;;;;;;;2.78;1.00;;;17.00;88.30;;;;;;4777033;29;20045;-82
2021/12/31 09:18:40;;;;;;;1.73;0.90;;;16.80;89.10;;;;;;4813982;29;20107;-83
2021/12/31 09:21:06;;;;;;;1.52;0.82;;;16.80;88.00;;;;;;4804395;29;20435;-83
2021/12/31 09:23:32;;;;;;;0.63;0.60;;;16.70;88.80;;;;;;4800517;29;20555;-83
2021/12/31 09:25:58;;;;;;;2.15;0.77;;;16.80;89.20;;;;;;4800329;29;20093;-84
2021/12/31 09:28:25;;;;;;;2.67;0.60;;;16.80;88.10;;;;;;4784483;29;20042;-83
2021/12/31 09:30:51;;;;;;;;;;;16.90;88.40;;;;;;4816707;29;20046;-83
2021/12/31 09:33:17;;;;;;;1.60;0.90;;;17.00;86.90;;;;;;4789095;29;20154;-82
2021/12/31 09:35:43;;;;;;;4.25;0.80;;;17.10;85.10;;;;;;4815530;29;20069;-83
2021/12/31 09:38:09;;;;;;;2.90;1.50;;;17.00;85.90;;;;;;4792162;30;20047;-83
2021/12/31 09:40:39;;;;;;;1.55;0.80;;;17.10;84.90;;;;;;4775111;29;20034;-82
2021/12/31 09:43:12;;;;;;;2.17;0.80;;;17.10;83.50;;;;;;4812853;29;20054;-82
2021/12/31 09:45:40;;;;;;;1.95;0.93;;;17.20;85.20;;;;;;4812645;29;20113;-82
2021/12/31 09:48:08;;;;;;;1.33;0.82;;;17.30;83.70;;;;;;4800450;29;20039;-82
2021/12/31 09:50:36;;;;;;;1.20;0.80;;;17.40;83.30;;;;;;4788682;29;20117;-83
2021/12/31 09:53:05;;;;;;;0.77;0.40;;;17.50;80.80;;;;;;4812108;29;20026;-82
2021/12/31 09:55:38;;;;;;;1.27;0.40;;;17.60;80.70;;;;;;4817472;29;20046;-81
2021/12/31 09:58:04;;;;;;;1.23;0.60;;;17.60;80.20;;;;;;4832152;29;20250;-83
2021/12/31 10:00:30;;;;;;;1.13;0.50;;;17.80;80.30;;;;;;4819621;29;20088;-82
2021/12/31 10:03:24;;;;;;;0.80;0.47;;;17.80;78.20;;;;;;4786432;29;20082;-82
2021/12/31 10:05:52;;;;;;;0.50;0.30;;;17.90;77.50;;;;;;4808442;29;20338;-83
2021/12/31 10:08:22;;;;;;;1.23;0.57;;;18.00;77.70;;;;;;4788831;29;20066;-82
2021/12/31 10:11:13;;;;;;;0.82;0.40;;;18.10;74.70;;;;;;4820036;29;20035;-82
2021/12/31 10:13:51;;;;;;;0.93;0.40;;;18.10;75.30;;;;;;4828154;29;20250;-82
2021/12/31 10:16:28;;;;;;;1.58;0.40;;;18.10;75.00;;;;;;4804998;29;20234;-82
2021/12/31 10:19:13;;;;;;;0.43;0.30;;;18.20;75.60;;;;;;4819297;29;20031;-83
2021/12/31 10:21:46;;;;;;;1.27;0.60;;;18.20;74.80;;;;;;4813178;29;20031;-83
2021/12/31 10:24:44;;;;;;;2.88;0.35;;;18.30;75.00;;;;;;4812692;29;20022;-83
2021/12/31 10:27:10;;;;;;;0.63;0.30;;;18.40;75.40;;;;;;4781758;29;20298;-82
2021/12/31 10:30:03;;;;;;;0.90;0.60;;;18.30;74.00;;;;;;4779847;29;20096;-83
2021/12/31 10:32:40;;;;;;;1.63;0.43;;;18.30;74.50;;;;;;4793885;29;20043;-83
2021/12/31 10:35:12;;;;;;;1.65;0.40;;;18.20;75.20;;;;;;4783865;29;20084;-83
2021/12/31 10:37:48;;;;;;;0.70;0.55;;;18.30;76.50;;;;;;4783187;29;20047;-84
2021/12/31 10:40:40;;;;;;;0.82;0.47;;;18.40;75.60;;;;;;4782612;29;20045;-83
2021/12/31 10:43:10;;;;;;;0.60;0.50;;;18.30;74.10;;;;;;4794672;29;20050;-83
2021/12/31 10:45:39;;;;;;;4.22;0.63;;;18.30;74.40;;;;;;4784178;29;20045;-83
2021/12/31 10:48:08;;;;;;;0.57;0.38;;;18.30;73.60;;;;;;4780453;29;20102;-83
2021/12/31 10:50:35;;;;;;;2.17;0.47;;;18.30;73.90;;;;;;4780263;29;20050;-82
2021/12/31 10:55:30;;;;;;;0.93;0.50;;;18.50;73.30;;;;;;4782642;29;20051;-82
2021/12/31 10:57:58;;;;;;;1.80;0.50;;;18.60;73.40;;;;;;4782333;29;20357;-82
2021/12/31 11:00:39;;;;;;;0.60;0.45;;;18.70;72.40;;;;;;4776973;29;20035;-82
2021/12/31 11:03:06;;;;;;;0.57;0.30;;;18.80;71.50;;;;;;4807868;29;20057;-82
2021/12/31 11:05:32;;;;;;;;;;;18.70;70.40;;;;;;4820838;29;20041;-83
2021/12/31 11:08:13;;;;;;;1.70;0.43;;;18.70;70.80;;;;;;4804033;29;19909;-83
2021/12/31 11:10:40;;;;;;;0.88;0.52;;;18.60;71.60;;;;;;4804497;29;20303;-83
2021/12/31 11:13:13;;;;;;;3.35;0.35;;;18.60;72.00;;;;;;4816221;29;20088;-82
2021/12/31 11:15:42;;;;;;;1.65;0.60;;;18.50;70.90;;;;;;4811704;29;20234;-82
2021/12/31 11:18:08;;;;;;;0.63;0.50;;;18.40;71.50;;;;;;4814325;29;20065;-83
2021/12/31 11:20:34;;;;;;;0.65;0.47;;;18.40;71.90;;;;;;4787830;29;20068;-83
2021/12/31 11:23:00;;;;;;;0.60;0.50;;;18.20;72.20;;;;;;4821747;29;20357;-83
2021/12/31 11:25:28;;;;;;;1.20;0.57;;;18.20;73.20;;;;;;4814522;29;20047;-84
2021/12/31 11:27:56;;;;;;;0.30;0.30;;;18.10;73.20;;;;;;4811781;29;20027;-83
2021/12/31 11:30:37;;;;;;;0.95;0.35;;;18.10;73.60;;;;;;4793355;29;20354;-82
2021/12/31 11:33:06;;;;;;;1.30;0.50;;;18.00;73.50;;;;;;4813749;29;20041;-83
2021/12/31 11:35:36;;;;;;;1.02;0.40;;;18.00;75.20;;;;;;4810801;29;20027;-84
2021/12/31 11:38:04;;;;;;;4.82;0.70;;;18.00;75.30;;;;;;4801991;29;20045;-83
2021/12/31 11:40:39;;;;;;;1.20;0.50;;;18.00;75.90;;;;;;4798385;29;20109;-84
2021/12/31 11:43:26;;;;;;;1.35;0.50;;;18.00;76.40;;;;;;4796680;29;20022;-83
2021/12/31 11:51:28;;;;;;;3.13;0.65;;;17.70;76.90;;;;;;4813043;29;20208;-84
2021/12/31 11:53:57;;;;;;;2.40;0.82;;;17.70;77.70;;;;;;4787489;29;20039;-84
2021/12/31 11:56:40;;;;;;;3.95;0.90;;;17.70;77.90;;;;;;4808716;29;20031;-82
2021/12/31 11:59:09;;;;;;;1.80;0.82;;;17.70;77.90;;;;;;4789937;29;20034;-83
2021/12/31 12:02:14;;;;;;;0.80;0.60;;;17.60;78.30;;;;;;4801861;29;20026;-83
2021/12/31 12:04:43;;;;;;;3.22;0.70;;;17.50;78.90;;;;;;4799867;30;20107;-83
2021/12/31 12:07:37;;;;;;;1.30;0.60;;;17.50;79.50;;;;;;4778685;30;20035;-84
2021/12/31 12:10:02;;;;;;;2.25;0.70;;;17.50;79.90;;;;;;4779260;30;20040;-83
2021/12/31 12:12:34;;;;;;;3.30;0.70;;;17.50;79.80;;;;;;4801051;30;20043;-83
2021/12/31 12:15:02;;;;;;;2.25;1.00;;;17.50;79.80;;;;;;4788599;30;20058;-82
2021/12/31 12:17:28;;;;;;;3.60;1.20;;;17.60;80.20;;;;;;4775358;30;20097;-83
2021/12/31 12:20:05;;;;;;;1.52;0.80;;;17.60;80.00;;;;;;4787379;30;20031;-83
2021/12/31 12:22:40;;;;;;;1.33;0.60;;;17.50;80.10;;;;;;4774480;30;20050;-82
2021/12/31 12:25:24;;;;;;;1.33;0.80;;;17.50;80.70;;;;;;4772449;30;20043;-83
2021/12/31 12:27:52;;;;;;;1.65;0.63;;;17.50;80.60;;;;;;4788785;30;20087;-83
2021/12/31 12:30:19;;;;;;;3.10;0.80;;;17.50;81.30;;;;;;4786230;30;20035;-83
2021/12/31 12:35:16;;;;;;;1.65;0.93;;;17.30;82.40;;;;;;4766112;30;20069;-82
2021/12/31 12:37:42;;;;;;;1.17;0.77;;;17.30;83.00;;;;;;4777379;30;20265;-83
2021/12/31 12:40:09;;;;;;;2.63;1.02;;;17.30;83.30;;;;;;4779585;29;20035;-83
2021/12/31 12:42:35;;;;;;;;;;;17.40;83.60;;;;;;4803114;29;20344;-84
2021/12/31 12:45:04;;;;;;;2.00;0.90;;;17.30;84.00;;;;;;4801729;29;19997;-83
2021/12/31 12:47:30;;;;;;;3.08;0.90;;;17.30;84.50;;;;;;4807196;29;20059;-83
2021/12/31 12:50:04;;;;;;;1.70;1.08;;;17.30;84.10;;;;;;4806385;29;20035;-84
2021/12/31 12:52:30;;;;;;;1.92;0.90;;;17.30;84.30;;;;;;4793089;29;20045;-83
2021/12/31 12:55:13;;;;;;;1.65;1.05;;;17.20;84.90;;;;;;4829843;29;20092;-83
2021/12/31 12:57:40;;;;;;;1.83;1.10;;;17.20;85.50;;;;;;4814413;29;20034;-83
2021/12/31 13:00:08;;;;;;;1.95;0.90;;;17.20;85.70;;;;;;4814029;29;20270;-82
2021/12/31 13:02:43;;;;;;;1.88;1.00;;;17.20;86.20;;;;;;4796223;29;20042;-82
2021/12/31 13:05:14;;;;;;;1.25;0.75;;;17.20;85.50;;;;;;4802280;29;20034;-84
2021/12/31 13:07:52;;;;;;;2.05;0.88;;;17.20;85.20;;;;;;4813207;29;20045;-84
2021/12/31 13:10:25;;;;;;;1.05;0.90;;;17.10;85.30;;;;;;4796799;29;20045;-84
2021/12/31 13:12:53;;;;;;;2.60;1.25;;;17.10;85.90;;;;;;4802084;29;20046;-84
2021/12/31 13:15:19;;;;;;;2.88;1.38;;;17.10;86.20;;;;;;4784591;29;20246;-83
2021/12/31 13:18:00;;;;;;;4.20;0.82;;;17.20;86.00;;;;;;4797733;29;20054;-83
2021/12/31 13:20:28;;;;;;;2.40;1.10;;;17.20;85.50;;;;;;4825873;29;20031;-83
2021/12/31 13:22:56;;;;;;;2.42;1.20;;;17.10;85.70;;;;;;4813648;29;20043;-83
2021/12/31 13:25:43;;;;;;;2.63;1.10;;;17.20;86.00;;;;;;4827509;29;20043;-84
2021/12/31 13:28:14;;;;;;;2.13;0.90;;;17.10;86.10;;;;;;4827610;29;20058;-84
2021/12/31 13:31:10;;;;;;;4.55;1.00;;;17.10;86.40;;;;;;4827005;29;20037;-81
2021/12/31 13:33:41;;;;;;;2.33;1.10;;;17.10;86.40;;;;;;4776975;30;20108;-82
2021/12/31 13:36:28;;;;;;;2.00;0.98;;;17.10;86.70;;;;;;4769226;30;20051;-82
2021/12/31 13:39:08;;;;;;;1.98;1.00;;;17.00;86.50;;;;;;4759619;30;20411;-82
2021/12/31 13:41:56;;;;;;;4.60;1.10;;;17.00;87.00;;;;;;4794201;30;20069;-82
2021/12/31 13:44:24;;;;;;;2.00;1.10;;;17.00;87.00;;;;;;4778088;30;20035;-83
2021/12/31 13:47:07;;;;;;;1.27;1.05;;;17.00;87.20;;;;;;4779698;30;20131;-82
2021/12/31 13:49:37;;;;;;;5.40;1.20;;;17.00;87.40;;;;;;4763496;30;20031;-82
2021/12/31 13:52:26;;;;;;;2.33;0.88;;;17.00;87.50;;;;;;4774472;30;20048;-84
2021/12/31 13:54:57;;;;;;;2.40;0.80;;;17.00;87.40;;;;;;4776699;30;20334;-82
2021/12/31 13:57:31;;;;;;;2.30;0.90;;;17.00;87.70;;;;;;4776435;30;20058;-82
2021/12/31 14:00:08;;;;;;;3.55;1.10;;;17.00;87.70;;;;;;4766594;30;20078;-84
2021/12/31 14:02:41;;;;;;;1.63;0.98;;;16.90;86.50;;;;;;4767847;30;20062;-83
2021/12/31 14:05:09;;;;;;;2.95;0.93;;;16.90;87.10;;;;;;4746316;30;20394;-83
2021/12/31 14:10:17;;;;;;;2.53;1.10;;;16.90;87.40;;;;;;4796151;29;20055;-83
2021/12/31 14:13:05;;;;;;;2.25;1.00;;;16.90;87.20;;;;;;4802273;29;20034;-84
2021/12/31 14:15:32;;;;;;;1.20;0.88;;;16.80;86.70;;;;;;4796826;29;20057;-83
2021/12/31 14:18:11;;;;;;;4.57;1.73;;;16.80;87.30;;;;;;4795018;29;20042;-83
2021/12/31 14:20:44;;;;;;;1.42;0.90;;;16.70;87.40;;;;;;4825609;29;20027;-83
2021/12/31 14:23:12;;;;;;;4.13;0.95;;;16.80;87.30;;;;;;4804909;29;20038;-83
2021/12/31 14:25:43;;;;;;;2.45;1.10;;;16.80;87.50;;;;;;4825528;29;20358;-83
2021/12/31 14:28:09;;;;;;;6.82;1.08;;;16.80;87.70;;;;;;4791243;29;20098;-83
2021/12/31 14:30:37;;;;;;;1.37;0.90;;;16.70;87.70;;;;;;4807781;29;20043;-83
2021/12/31 14:33:03;;;;;;;1.92;1.00;;;16.70;87.90;;;;;;4781597;29;20129;-83
2021/12/31 14:35:36;;;;;;;1.80;0.88;;;16.70;87.70;;;;;;4801615;29;20081;-83
2021/12/31 14:38:05;;;;;;;2.58;1.40;;;16.70;88.00;;;;;;4811664;29;20043;-83
2021/12/31 14:40:31;;;;;;;10.10;5.15;;;16.70;87.70;;;;;;4818655;29;20046;-83
2021/12/31 14:42:57;;;;;;;4.23;2.23;;;16.60;87.70;;;;;;4815487;29;20042;-83
2021/12/31 14:45:23;;;;;;;4.93;2.05;;;16.60;87.90;;;;;;4794812;29;20036;-82
2021/12/31 14:47:49;;;;;;;4.63;1.75;;;16.50;88.00;;;;;;4813846;29;20082;-82
2021/12/31 14:50:18;;;;;;;5.43;2.47;;;16.50;87.70;;;;;;4797158;29;20058;-83
2021/12/31 14:52:47;;;;;;;8.63;3.40;;;16.50;88.40;;;;;;4811755;29;20031;-83
2021/12/31 14:55:15;;;;;;;7.38;3.60;;;16.50;88.20;;;;;;4801119;29;20314;-83
2021/12/31 14:57:42;;;;;;;5.05;2.03;;;16.40;88.40;;;;;;4802336;29;20231;-82
2021/12/31 15:00:10;;;;;;;3.58;1.63;;;16.40;89.40;;;;;;4814706;29;20395;-83
2021/12/31 15:02:36;;;;;;;2.85;1.70;;;16.30;89.20;;;;;;4797513;29;20146;-83
2021/12/31 15:05:03;;;;;;;8.10;4.30;;;16.30;90.10;;;;;;4795176;29;20276;-83
2021/12/31 15:07:29;;;;;;;5.07;2.70;;;16.30;89.80;;;;;;4812899;29;20049;-82
2021/12/31 15:09:56;;;;;;;3.30;2.08;;;16.20;90.10;;;;;;4788234;29;20066;-83
2021/12/31 15:12:23;;;;;;;2.97;2.25;;;16.20;90.10;;;;;;4812455;29;20043;-83
2021/12/31 15:14:52;;;;;;;3.75;1.95;;;16.10;90.20;;;;;;4813305;29;20327;-83
2021/12/31 15:17:18;;;;;;;2.58;1.90;;;16.00;90.40;;;;;;4816332;29;20045;-83
2021/12/31 15:19:44;;;;;;;3.42;1.92;;;16.00;90.60;;;;;;4772817;29;20222;-83
2021/12/31 15:22:10;;;;;;;7.05;1.90;;;15.90;90.90;;;;;;4812492;29;20030;-83
2021/12/31 15:24:36;;;;;;;5.13;2.95;;;15.90;91.10;;;;;;4811367;29;20359;-83
2021/12/31 15:27:03;;;;;;;3.80;2.50;;;15.90;91.20;;;;;;4805286;29;20236;-82
2021/12/31 15:29:30;;;;;;;6.10;3.15;;;15.90;91.30;;;;;;4774341;29;20362;-83
2021/12/31 15:31:56;;;;;;;3.95;2.10;;;15.80;91.30;;;;;;4796667;29;20047;-83
2021/12/31 15:34:22;;;;;;;4.68;2.00;;;15.80;91.50;;;;;;4810765;29;20079;-82
2021/12/31 15:36:48;;;;;;;5.35;2.90;;;15.70;91.80;;;;;;4801195;29;20062;-83
2021/12/31 15:39:14;;;;;;;3.65;2.33;;;15.60;92.00;;;;;;4801437;29;20090;-84
2021/12/31 15:41:45;;;;;;;5.57;2.60;;;15.60;92.20;;;;;;4795123;29;20278;-83
2021/12/31 15:44:12;;;;;;;4.75;2.20;;;15.50;92.30;;;;;;4799900;29;20061;-83
2021/12/31 15:46:39;;;;;;;4.00;2.50;;;15.50;92.50;;;;;;4796807;29;20043;-83
2021/12/31 15:49:06;;;;;;;7.32;2.55;;;15.50;92.70;;;;;;4799921;29;20360;-83
2021/12/31 15:51:33;;;;;;;;;;;15.40;92.90;;;;;;4812808;29;20059;-83
2021/12/31 15:54:06;;;;;;;5.35;1.85;;;15.40;93.30;;;;;;4812387;29;19920;-82
2021/12/31 15:56:32;;;;;;;3.30;1.50;;;15.40;93.50;;;;;;4801922;29;20041;-82
2021/12/31 15:59:00;;;;;;;3.63;2.10;;;15.30;93.70;;;;;;4828381;29;20065;-83
2021/12/31 16:01:26;;;;;;;3.42;2.03;;;15.30;93.90;;;;;;4813584;29;20281;-83
2021/12/31 16:03:53;;;;;;;3.53;1.80;;;15.30;94.00;;;;;;4813234;29;20040;-83
2021/12/31 16:06:19;;;;;;;2.17;1.48;;;15.30;94.10;;;;;;4797982;29;20287;-82
2021/12/31 16:08:45;;;;;;;4.25;2.60;;;15.30;94.10;;;;;;4799278;29;20963;-83
2021/12/31 16:11:11;;;;;;;4.07;1.92;;;15.30;94.20;;;;;;4809916;29;20038;-82
2021/12/31 16:13:37;;;;;;;3.97;1.98;;;15.20;94.40;;;;;;4796736;29;20051;-83
2021/12/31 16:16:03;;;;;;;3.65;2.03;;;15.20;94.70;;;;;;4800665;29;20275;-84
2021/12/31 16:18:36;;;;;;;4.00;2.20;;;15.20;94.50;;;;;;4783365;29;20114;-83
2021/12/31 16:21:05;;;;;;;7.47;3.42;;;15.30;94.50;;;;;;4825620;29;20035;-83
2021/12/31 16:23:31;;;;;;;9.87;3.60;;;15.20;94.60;;;;;;4800340;29;20200;-83
2021/12/31 16:25:57;;;;;;;9.27;3.80;;;15.20;94.60;;;;;;4815740;29;20038;-83
2021/12/31 16:28:23;;;;;;;7.75;4.20;;;15.20;94.80;;;;;;4800965;29;20042;-83
2021/12/31 16:30:49;;;;;;;4.68;2.88;;;15.20;95.00;;;;;;4770685;29;20031;-84
2021/12/31 16:33:15;;;;;;;7.65;3.67;;;15.10;95.20;;;;;;4812222;29;20039;-83
2021/12/31 16:35:40;;;;;;;5.22;2.97;;;15.10;95.20;;;;;;4798232;29;20264;-83
2021/12/31 16:38:06;;;;;;;5.35;2.70;;;15.10;95.40;;;;;;4807465;29;20034;-84
2021/12/31 16:40:32;;;;;;;6.45;3.00;;;15.10;95.40;;;;;;4812446;29;20042;-83
2021/12/31 16:42:58;;;;;;;4.25;2.65;;;15.10;95.40;;;;;;4813289;29;20043;-83
2021/12/31 16:45:24;;;;;;;3.97;2.15;;;15.00;95.60;;;;;;4802008;29;20075;-82
2021/12/31 16:47:50;;;;;;;6.75;2.53;;;15.10;95.50;;;;;;4814059;29;20063;-83
2021/12/31 16:50:17;;;;;;;3.67;2.23;;;15.00;95.50;;;;;;4795519;29;20051;-82
2021/12/31 16:52:43;;;;;;;5.37;2.60;;;15.10;95.50;;;;;;4792481;29;20073;-82
2021/12/31 16:55:17;;;;;;;3.92;2.83;;;14.90;95.80;;;;;;4801364;29;20106;-83
2021/12/31 16:57:46;;;;;;;5.05;2.58;;;14.90;95.80;;;;;;4804927;29;20046;-84